Time;durP1;ratioP1;P1;durP2;ratioP2;P2;SDS_P1;SDS_P2;PMS_P1;PMS_P2;Temp;Humidity;BMP_temperature;BMP_pressure;BME280_temperature;BME280_humidity;BME280_pressure;Samples;Min_cycle;Max_cycle;Signal;HPM_P1;HPM_P2
2023/01/22 00:01:24;;;;;;;16.38;11.88;;;1.00;99.90;;;;;;5056981;28;20419;-63
2023/01/22 00:03:52;;;;;;;15.82;11.20;;;1.00;99.90;;;;;;5058144;28;20417;-62
2023/01/22 00:06:19;;;;;;;17.00;12.10;;;0.90;99.90;;;;;;5054069;28;20409;-62
2023/01/22 00:08:47;;;;;;;17.17;11.43;;;0.90;99.90;;;;;;5053313;28;20413;-63
2023/01/22 00:11:14;;;;;;;13.88;10.70;;;0.90;99.90;;;;;;5053371;28;20405;-63
2023/01/22 00:13:43;;;;;;;16.73;10.75;;;0.90;99.90;;;;;;5052939;28;20417;-62
2023/01/22 00:16:12;;;;;;;16.10;11.23;;;0.80;99.90;;;;;;5053501;28;20429;-62
2023/01/22 00:18:39;;;;;;;15.13;11.07;;;0.80;99.90;;;;;;5052555;28;20410;-62
2023/01/22 00:21:07;;;;;;;16.45;11.50;;;0.80;99.90;;;;;;5052703;28;20412;-62
2023/01/22 00:23:33;;;;;;;15.25;11.68;;;0.80;99.90;;;;;;5051991;28;20762;-61
2023/01/22 00:26:01;;;;;;;15.10;10.98;;;0.80;99.90;;;;;;5053744;28;20904;-63
2023/01/22 00:28:28;;;;;;;17.85;12.38;;;0.80;99.90;;;;;;5057011;28;20413;-63
2023/01/22 00:30:58;;;;;;;15.80;11.10;;;0.70;99.90;;;;;;5057641;28;20420;-63
2023/01/22 00:33:25;;;;;;;18.90;11.55;;;0.80;99.90;;;;;;5057240;28;20913;-63
2023/01/22 00:35:52;;;;;;;16.60;11.52;;;0.70;99.90;;;;;;5057889;28;20429;-63
2023/01/22 00:38:19;;;;;;;16.05;11.82;;;0.70;99.90;;;;;;5058874;28;20885;-64
2023/01/22 00:40:45;;;;;;;15.73;11.23;;;0.70;99.90;;;;;;5059243;28;20462;-64
2023/01/22 00:43:12;;;;;;;16.80;11.80;;;0.70;99.90;;;;;;5058034;28;20413;-62
2023/01/22 00:45:39;;;;;;;18.02;11.65;;;0.70;99.90;;;;;;5057764;28;20418;-63
2023/01/22 00:48:07;;;;;;;17.95;11.48;;;0.70;99.90;;;;;;5058273;28;20413;-63
2023/01/22 00:50:34;;;;;;;18.13;11.65;;;0.70;99.90;;;;;;5057605;28;20413;-62
2023/01/22 00:53:02;;;;;;;15.48;11.35;;;0.70;99.90;;;;;;5056856;28;20770;-63
2023/01/22 00:55:29;;;;;;;18.40;11.57;;;0.60;99.90;;;;;;5057518;28;20913;-63
2023/01/22 00:57:56;;;;;;;18.70;11.90;;;0.70;99.90;;;;;;5057292;28;20408;-63
2023/01/22 01:00:23;;;;;;;16.83;12.27;;;0.60;99.90;;;;;;5056995;28;20413;-62
2023/01/22 01:05:35;;;;;;;17.85;11.60;;;0.60;99.90;;;;;;5056850;28;20432;-61
2023/01/22 01:08:02;;;;;;;17.00;11.30;;;0.60;99.90;;;;;;5056685;28;20433;-63
2023/01/22 01:10:29;;;;;;;19.42;12.20;;;0.70;99.90;;;;;;5056266;28;20420;-63
2023/01/22 01:12:56;;;;;;;15.70;11.70;;;0.70;99.90;;;;;;5056135;28;20421;-62
2023/01/22 01:15:23;;;;;;;18.10;12.55;;;0.70;99.90;;;;;;5056649;28;20496;-63
2023/01/22 01:17:50;;;;;;;16.47;11.47;;;0.70;99.90;;;;;;5057458;28;20923;-63
2023/01/22 01:20:16;;;;;;;12.55;9.82;;;0.70;99.90;;;;;;5058887;28;20435;-62
2023/01/22 01:22:45;;;;;;;15.35;10.25;;;0.70;99.90;;;;;;5057804;28;20232;-62
2023/01/22 01:25:11;;;;;;;15.65;9.65;;;0.60;99.90;;;;;;5059448;28;20186;-62
2023/01/22 01:27:38;;;;;;;14.20;8.60;;;0.70;99.90;;;;;;5061958;28;20292;-62
2023/01/22 01:30:06;;;;;;;12.25;9.40;;;0.60;99.90;;;;;;5063829;28;20208;-62
2023/01/22 01:32:33;;;;;;;10.65;7.20;;;0.60;99.90;;;;;;5064749;28;20228;-62
2023/01/22 01:35:00;;;;;;;15.38;8.05;;;0.60;99.90;;;;;;5065963;28;20205;-62
2023/01/22 01:37:26;;;;;;;10.70;8.10;;;0.60;99.90;;;;;;5063719;28;20223;-62
2023/01/22 01:39:55;;;;;;;9.13;7.43;;;0.60;99.90;;;;;;5063991;28;20211;-64
2023/01/22 01:42:25;;;;;;;11.50;8.70;;;0.60;99.90;;;;;;5063644;28;20252;-63
2023/01/22 01:45:24;;;;;;;10.88;7.60;;;0.60;99.90;;;;;;5063707;28;20227;-62
2023/01/22 01:47:56;;;;;;;9.55;6.90;;;0.60;99.90;;;;;;5062454;28;20187;-62
2023/01/22 01:50:24;;;;;;;9.57;6.95;;;0.60;99.90;;;;;;5063680;28;20190;-63
2023/01/22 01:52:51;;;;;;;9.07;7.15;;;0.70;99.90;;;;;;5062770;28;20219;-63
2023/01/22 01:55:24;;;;;;;10.05;7.35;;;0.70;99.90;;;;;;5061975;28;20202;-62
2023/01/22 01:57:52;;;;;;;9.45;6.90;;;0.60;99.90;;;;;;5065383;28;20190;-63
2023/01/22 02:00:20;;;;;;;11.70;7.85;;;0.70;99.90;;;;;;5065210;28;20204;-62
2023/01/22 02:02:48;;;;;;;11.75;7.20;;;0.70;99.90;;;;;;5064338;28;20291;-63
2023/01/22 02:05:19;;;;;;;14.30;9.40;;;0.70;99.90;;;;;;5062170;28;20416;-63
2023/01/22 02:07:46;;;;;;;13.10;10.20;;;0.70;99.90;;;;;;5060814;28;20436;-63
2023/01/22 02:10:13;;;;;;;15.30;10.13;;;0.70;99.90;;;;;;5060068;28;20417;-62
2023/01/22 02:12:41;;;;;;;14.00;9.40;;;0.70;99.90;;;;;;5058778;28;20405;-63
2023/01/22 02:15:09;;;;;;;11.07;7.18;;;0.70;99.90;;;;;;5060397;28;20202;-63
2023/01/22 02:17:36;;;;;;;9.85;6.93;;;0.70;99.90;;;;;;5061463;28;20223;-62
2023/01/22 02:20:04;;;;;;;12.15;7.68;;;0.80;99.90;;;;;;5060310;28;20220;-63
2023/01/22 02:22:36;;;;;;;12.10;6.93;;;0.80;99.90;;;;;;5060615;28;20233;-63
2023/01/22 02:25:03;;;;;;;11.57;7.45;;;0.70;99.90;;;;;;5061309;28;20613;-63
2023/01/22 02:27:29;;;;;;;12.80;7.38;;;0.70;99.90;;;;;;5058513;28;20203;-63
2023/01/22 02:29:56;;;;;;;8.60;5.20;;;0.80;99.90;;;;;;5059559;28;20204;-62
2023/01/22 02:32:23;;;;;;;13.10;6.95;;;0.70;99.90;;;;;;5058557;28;20229;-63
2023/01/22 02:34:50;;;;;;;10.80;7.00;;;0.70;99.90;;;;;;5057274;28;20571;-62
2023/01/22 02:37:17;;;;;;;13.20;8.80;;;0.70;99.90;;;;;;5055798;28;20429;-63
2023/01/22 02:39:45;;;;;;;12.05;8.40;;;0.70;99.90;;;;;;5054807;28;20417;-63
2023/01/22 02:42:12;;;;;;;12.10;8.40;;;0.70;99.90;;;;;;5059760;28;20420;-63
2023/01/22 02:44:39;;;;;;;12.63;8.90;;;0.80;99.90;;;;;;5062712;28;20504;-63
2023/01/22 02:47:06;;;;;;;14.38;9.57;;;0.70;99.90;;;;;;5065427;28;20412;-62
2023/01/22 02:49:33;;;;;;;11.48;8.73;;;0.80;99.90;;;;;;5064651;28;20897;-64
2023/01/22 02:52:00;;;;;;;10.98;8.25;;;0.80;99.90;;;;;;5063967;28;20410;-61
2023/01/22 02:54:26;;;;;;;10.97;7.93;;;0.80;99.90;;;;;;5064538;28;20500;-61
2023/01/22 02:56:55;;;;;;;11.38;8.10;;;0.80;99.90;;;;;;5062067;28;20429;-62
2023/01/22 02:59:22;;;;;;;11.55;8.50;;;0.80;99.90;;;;;;5063665;28;20414;-63
2023/01/22 03:01:50;;;;;;;11.50;8.50;;;0.80;99.90;;;;;;5061495;28;20425;-62
2023/01/22 03:04:17;;;;;;;11.13;8.23;;;0.80;99.90;;;;;;5058478;28;20416;-62
2023/01/22 03:06:46;;;;;;;11.30;8.27;;;0.80;99.90;;;;;;5054730;28;20566;-62
2023/01/22 03:09:15;;;;;;;12.02;8.70;;;0.80;99.90;;;;;;5053034;28;20781;-61
2023/01/22 03:11:42;;;;;;;12.05;8.30;;;0.80;99.90;;;;;;5053171;28;20410;-63
2023/01/22 03:22:24;;;;;;;11.55;8.40;;;0.80;99.90;;;;;;5052365;28;20487;-62
2023/01/22 03:24:51;;;;;;;11.60;8.30;;;0.80;99.90;;;;;;5052550;28;20484;-61
2023/01/22 03:27:19;;;;;;;12.20;8.38;;;0.80;99.90;;;;;;5052894;28;20497;-62
2023/01/22 03:29:48;;;;;;;8.90;7.47;;;0.80;99.90;;;;;;5052635;28;20409;-62
2023/01/22 03:32:15;;;;;;;12.25;8.57;;;0.80;99.90;;;;;;5053118;28;20421;-62
2023/01/22 03:34:42;;;;;;;9.85;8.15;;;0.80;99.90;;;;;;5052717;28;20417;-61
2023/01/22 03:37:11;;;;;;;12.20;8.30;;;0.80;99.90;;;;;;5052608;28;20432;-62
2023/01/22 03:39:38;;;;;;;10.07;7.63;;;0.80;99.90;;;;;;5052780;28;20508;-62
2023/01/22 03:42:05;;;;;;;10.07;7.78;;;0.80;99.90;;;;;;5052396;28;20417;-62
2023/01/22 03:44:32;;;;;;;10.90;8.20;;;0.80;99.90;;;;;;5052512;28;20421;-62
2023/01/22 03:47:00;;;;;;;10.43;7.53;;;0.80;99.90;;;;;;5052018;28;20417;-63
2023/01/22 03:49:27;;;;;;;9.97;7.57;;;0.70;99.90;;;;;;5053126;28;20417;-63
2023/01/22 03:51:54;;;;;;;9.02;7.65;;;0.70;99.90;;;;;;5052540;28;20418;-64
2023/01/22 03:54:21;;;;;;;11.20;7.45;;;0.70;99.90;;;;;;5052582;28;20424;-62
2023/01/22 03:56:48;;;;;;;9.38;6.85;;;0.70;99.90;;;;;;5061480;28;20425;-63
2023/01/22 03:59:14;;;;;;;9.27;7.38;;;0.70;99.90;;;;;;5064074;28;20473;-63
2023/01/22 04:01:41;;;;;;;8.70;7.10;;;0.70;99.90;;;;;;5063885;28;20409;-63
2023/01/22 04:04:09;;;;;;;9.98;7.28;;;0.70;99.90;;;;;;5064420;28;20417;-63
2023/01/22 04:06:36;;;;;;;9.05;7.43;;;0.70;99.90;;;;;;5064874;28;20405;-63
2023/01/22 04:11:02;;;;;;;9.85;7.05;;;0.60;99.90;;;;;;5117668;27;20356;-62
2023/01/22 04:13:31;;;;;;;13.05;7.60;;;0.60;99.90;;;;;;5113949;28;20893;-62
2023/01/22 04:15:59;;;;;;;9.70;7.70;;;0.60;99.90;;;;;;5114923;28;20504;-63
2023/01/22 04:18:26;;;;;;;9.25;7.25;;;0.60;99.90;;;;;;5113923;28;20405;-63
2023/01/22 04:20:53;;;;;;;8.73;7.32;;;0.60;99.90;;;;;;5113459;28;20500;-62
2023/01/22 04:23:21;;;;;;;10.33;7.53;;;0.60;99.90;;;;;;5109345;22;20892;-64
2023/01/22 04:25:49;;;;;;;12.15;7.60;;;0.60;99.90;;;;;;5069623;28;20408;-63
2023/01/22 04:28:17;;;;;;;8.40;7.03;;;0.60;99.90;;;;;;5068903;28;20409;-63
2023/01/22 04:30:45;;;;;;;9.75;7.25;;;0.60;99.90;;;;;;5068415;28;20420;-63
2023/01/22 04:33:12;;;;;;;10.05;7.45;;;0.60;99.90;;;;;;5068206;28;20900;-61
2023/01/22 04:35:41;;;;;;;9.82;7.22;;;0.60;99.90;;;;;;5068632;28;20413;-62
2023/01/22 04:38:11;;;;;;;10.00;7.65;;;0.60;99.90;;;;;;5068571;28;20482;-62
2023/01/22 04:40:38;;;;;;;10.20;7.45;;;0.60;99.90;;;;;;5068794;28;20415;-62
2023/01/22 04:43:06;;;;;;;10.00;7.00;;;0.60;99.90;;;;;;5068758;28;20409;-63
2023/01/22 04:45:35;;;;;;;9.70;7.53;;;0.60;99.90;;;;;;5068491;28;20780;-63
2023/01/22 04:48:02;;;;;;;9.63;7.97;;;0.60;99.90;;;;;;5068682;28;20409;-62
2023/01/22 04:50:31;;;;;;;9.40;7.77;;;0.70;99.90;;;;;;5069657;28;20489;-63
2023/01/22 04:52:58;;;;;;;10.20;7.40;;;0.60;99.90;;;;;;5068677;28;20413;-61
2023/01/22 04:55:26;;;;;;;11.23;7.97;;;0.70;99.90;;;;;;5068664;28;20451;-63
2023/01/22 04:57:54;;;;;;;11.07;7.80;;;0.60;99.90;;;;;;5068740;28;20783;-62
2023/01/22 05:00:22;;;;;;;10.45;7.60;;;0.60;99.90;;;;;;5067868;28;21018;-62
2023/01/22 05:02:50;;;;;;;11.15;8.00;;;0.60;99.90;;;;;;5068337;28;20416;-62
2023/01/22 05:05:17;;;;;;;11.17;8.70;;;0.60;99.90;;;;;;5068655;28;20425;-62
2023/01/22 05:07:44;;;;;;;11.55;8.48;;;0.60;99.90;;;;;;5067719;28;20785;-62
2023/01/22 05:10:11;;;;;;;8.95;7.40;;;0.60;99.90;;;;;;5067725;28;20456;-62
2023/01/22 05:12:38;;;;;;;11.50;8.33;;;0.60;99.90;;;;;;5068037;28;20416;-62
2023/01/22 05:15:05;;;;;;;11.25;8.40;;;0.60;99.90;;;;;;5067799;28;20415;-62
2023/01/22 05:17:32;;;;;;;12.18;8.32;;;0.60;99.90;;;;;;5067640;28;20456;-62
2023/01/22 05:20:00;;;;;;;11.70;7.73;;;0.60;99.90;;;;;;5067947;28;20439;-62
2023/01/22 05:22:27;;;;;;;10.75;8.10;;;0.50;99.90;;;;;;5054066;28;20423;-62
2023/01/22 05:24:54;;;;;;;10.35;7.68;;;0.60;99.90;;;;;;5054619;28;20420;-62
2023/01/22 05:27:20;;;;;;;12.35;8.00;;;0.60;99.90;;;;;;5054395;28;20405;-62
2023/01/22 05:29:47;;;;;;;11.35;7.70;;;0.60;99.90;;;;;;5054511;28;20429;-62
2023/01/22 05:32:14;;;;;;;9.60;7.70;;;0.50;99.90;;;;;;5054493;28;20539;-62
2023/01/22 05:34:41;;;;;;;10.10;7.70;;;0.50;99.90;;;;;;5054862;28;20752;-63
2023/01/22 05:37:09;;;;;;;11.57;8.40;;;0.50;99.90;;;;;;5054554;28;20417;-62
2023/01/22 05:39:36;;;;;;;11.50;8.00;;;0.50;99.90;;;;;;5054669;28;20414;-61
2023/01/22 05:42:03;;;;;;;12.98;8.30;;;0.50;99.90;;;;;;5054228;28;20865;-63
2023/01/22 05:44:30;;;;;;;13.13;9.02;;;0.50;99.90;;;;;;5054274;28;20893;-63
2023/01/22 05:46:57;;;;;;;12.98;9.00;;;0.50;99.90;;;;;;5054844;28;20480;-63
2023/01/22 05:49:23;;;;;;;12.80;9.35;;;0.50;99.90;;;;;;5053911;28;20948;-63
2023/01/22 05:51:50;;;;;;;12.93;9.00;;;0.50;99.90;;;;;;5054274;28;20774;-62
2023/01/22 05:54:18;;;;;;;12.27;8.93;;;0.50;99.90;;;;;;5054157;28;20409;-62
2023/01/22 05:56:45;;;;;;;14.15;9.48;;;0.50;99.90;;;;;;5054417;28;20773;-63
2023/01/22 05:59:12;;;;;;;13.32;8.95;;;0.50;99.90;;;;;;5054036;28;20889;-62
2023/01/22 06:01:39;;;;;;;13.68;9.40;;;0.60;99.90;;;;;;5054216;28;20418;-62
2023/01/22 06:04:06;;;;;;;12.82;9.18;;;0.60;99.90;;;;;;5053834;28;20417;-62
2023/01/22 06:06:33;;;;;;;13.45;9.45;;;0.60;99.90;;;;;;5054068;28;20486;-63
2023/01/22 06:08:59;;;;;;;14.93;10.30;;;0.60;99.90;;;;;;5054139;28;20432;-62
2023/01/22 06:11:27;;;;;;;14.40;9.93;;;0.60;99.90;;;;;;5054023;28;20425;-62
2023/01/22 06:13:54;;;;;;;13.73;9.70;;;0.60;99.90;;;;;;5054046;28;20413;-63
2023/01/22 06:16:21;;;;;;;12.80;9.90;;;0.60;99.90;;;;;;5053870;28;20413;-63
2023/01/22 06:18:48;;;;;;;14.80;10.43;;;0.60;99.90;;;;;;5053870;28;20504;-63
2023/01/22 06:21:15;;;;;;;15.98;10.30;;;0.60;99.90;;;;;;5053800;28;20427;-63
2023/01/22 06:23:41;;;;;;;14.95;9.63;;;0.60;99.90;;;;;;5053787;28;20416;-63
2023/01/22 06:26:09;;;;;;;13.93;10.00;;;0.60;99.90;;;;;;5053774;28;20416;-62
2023/01/22 06:28:37;;;;;;;17.08;10.02;;;0.60;99.90;;;;;;5053606;28;20419;-62
2023/01/22 06:31:06;;;;;;;13.20;9.23;;;0.60;99.90;;;;;;5053466;28;20429;-61
2023/01/22 06:33:33;;;;;;;16.00;9.32;;;0.60;99.90;;;;;;5052406;28;20421;-61
2023/01/22 06:36:01;;;;;;;13.75;9.50;;;0.60;99.90;;;;;;5053119;28;20417;-62
2023/01/22 06:38:27;;;;;;;13.02;9.40;;;0.60;99.90;;;;;;5053219;28;20414;-62
2023/01/22 06:40:55;;;;;;;13.50;9.38;;;0.60;99.90;;;;;;5052936;28;20421;-63
2023/01/22 06:43:23;;;;;;;14.77;9.35;;;0.60;99.90;;;;;;5053502;28;20413;-62
2023/01/22 06:45:51;;;;;;;14.70;10.18;;;0.60;99.90;;;;;;5053593;28;20419;-62
2023/01/22 06:48:18;;;;;;;14.52;10.00;;;0.60;99.90;;;;;;5052816;28;20757;-62
2023/01/22 06:50:45;;;;;;;13.68;9.20;;;0.60;99.90;;;;;;5052998;28;20947;-62
2023/01/22 06:53:12;;;;;;;13.75;9.65;;;0.60;99.90;;;;;;5053311;28;20413;-63
2023/01/22 06:55:39;;;;;;;14.75;9.70;;;0.60;99.90;;;;;;5053161;28;20417;-62
2023/01/22 06:58:05;;;;;;;13.25;9.23;;;0.60;99.90;;;;;;5053243;28;20409;-62
2023/01/22 07:00:32;;;;;;;14.98;9.15;;;0.60;99.90;;;;;;5053448;28;20492;-64
2023/01/22 07:03:04;;;;;;;12.60;9.20;;;0.60;99.90;;;;;;5052985;28;20510;-64
2023/01/22 07:05:31;;;;;;;18.65;10.68;;;0.60;99.90;;;;;;5053583;28;20865;-62
2023/01/22 07:07:58;;;;;;;12.87;9.30;;;0.60;99.90;;;;;;5053560;28;20499;-62
2023/01/22 07:10:25;;;;;;;14.77;10.02;;;0.60;99.90;;;;;;5053071;28;20433;-63
2023/01/22 07:12:55;;;;;;;13.63;9.10;;;0.70;99.90;;;;;;5052708;28;20508;-61
2023/01/22 07:15:22;;;;;;;16.70;9.68;;;0.70;99.90;;;;;;5053272;28;20413;-62
2023/01/22 07:17:50;;;;;;;14.40;9.75;;;0.70;99.90;;;;;;5053396;28;20409;-63
2023/01/22 07:20:19;;;;;;;13.32;9.02;;;0.70;99.90;;;;;;5053379;28;20409;-63
2023/01/22 07:22:46;;;;;;;13.77;8.68;;;0.70;99.90;;;;;;5052530;28;20774;-62
2023/01/22 07:25:13;;;;;;;13.48;9.15;;;0.80;99.90;;;;;;5053171;28;20413;-65
2023/01/22 07:27:40;;;;;;;14.32;9.20;;;0.80;99.90;;;;;;5054344;28;20413;-64
2023/01/22 07:30:08;;;;;;;12.82;9.43;;;0.80;99.90;;;;;;5053308;28;20436;-65
2023/01/22 07:32:35;;;;;;;13.00;8.80;;;0.80;99.90;;;;;;5053012;28;20421;-64
2023/01/22 07:35:02;;;;;;;13.17;9.03;;;0.80;99.90;;;;;;5052919;28;20511;-64
2023/01/22 07:37:30;;;;;;;13.48;9.80;;;0.80;99.90;;;;;;5053074;28;20492;-63
2023/01/22 07:39:57;;;;;;;12.35;9.10;;;0.80;99.90;;;;;;5052831;28;20510;-65
2023/01/22 07:42:24;;;;;;;13.43;9.32;;;0.80;99.90;;;;;;5052684;28;20419;-64
2023/01/22 07:44:51;;;;;;;12.30;8.50;;;0.80;99.90;;;;;;5052633;28;20428;-64
2023/01/22 07:47:18;;;;;;;13.50;9.07;;;0.70;99.90;;;;;;5052324;28;20409;-64
2023/01/22 07:49:44;;;;;;;12.80;8.63;;;0.80;99.90;;;;;;5052070;28;20439;-64
2023/01/22 07:52:11;;;;;;;15.07;9.40;;;0.80;99.90;;;;;;5052359;28;20423;-63
2023/01/22 07:54:39;;;;;;;12.87;8.87;;;0.80;99.90;;;;;;5052036;28;20427;-63
2023/01/22 07:57:06;;;;;;;14.82;9.60;;;0.80;99.90;;;;;;5052563;28;20409;-63
2023/01/22 07:59:34;;;;;;;12.93;8.85;;;0.80;99.90;;;;;;5052169;28;20915;-64
2023/01/22 08:02:01;;;;;;;12.25;8.45;;;0.80;99.90;;;;;;5052281;28;20785;-61
2023/01/22 08:04:28;;;;;;;11.65;8.25;;;0.80;99.90;;;;;;5052367;28;20417;-61
2023/01/22 08:06:54;;;;;;;14.13;8.60;;;0.80;99.90;;;;;;5052164;28;20848;-62
2023/01/22 08:09:24;;;;;;;14.57;8.70;;;0.80;99.90;;;;;;5052363;28;20488;-62
2023/01/22 08:11:52;;;;;;;13.43;8.52;;;0.80;99.90;;;;;;5052079;28;20475;-62
2023/01/22 08:14:19;;;;;;;12.98;8.68;;;0.80;99.90;;;;;;5052430;28;20420;-63
2023/01/22 08:16:47;;;;;;;13.90;9.48;;;0.80;99.90;;;;;;5053058;28;20425;-62
2023/01/22 08:19:14;;;;;;;12.52;8.82;;;0.80;99.90;;;;;;5052879;28;20475;-63
2023/01/22 08:21:40;;;;;;;12.20;8.70;;;0.80;99.90;;;;;;5052378;28;20459;-61
2023/01/22 08:24:09;;;;;;;13.10;9.05;;;0.80;99.90;;;;;;5051971;28;20423;-63
2023/01/22 08:26:36;;;;;;;12.60;8.70;;;0.80;99.90;;;;;;5052244;28;20424;-64
2023/01/22 08:29:04;;;;;;;11.82;8.75;;;0.80;99.90;;;;;;5052602;28;20505;-62
2023/01/22 08:31:31;;;;;;;13.35;8.90;;;0.80;99.90;;;;;;5051753;28;20420;-64
2023/01/22 08:33:59;;;;;;;11.90;8.73;;;0.90;99.90;;;;;;5051192;28;20415;-63
2023/01/22 08:36:26;;;;;;;12.15;7.90;;;0.90;99.90;;;;;;5052555;28;20456;-63
2023/01/22 08:38:53;;;;;;;9.80;7.40;;;1.00;99.90;;;;;;5052705;28;20431;-63
2023/01/22 08:41:20;;;;;;;10.95;8.15;;;1.00;99.90;;;;;;5052569;28;20416;-62
2023/01/22 08:43:47;;;;;;;10.15;7.80;;;1.10;99.90;;;;;;5051504;28;20429;-64
2023/01/22 08:46:15;;;;;;;11.13;7.90;;;1.10;99.90;;;;;;5051070;28;20437;-64
2023/01/22 08:48:43;;;;;;;9.75;7.93;;;1.10;99.90;;;;;;5052573;28;20430;-63
2023/01/22 08:51:10;;;;;;;11.13;8.05;;;1.20;99.90;;;;;;5050490;28;20913;-63
2023/01/22 08:53:36;;;;;;;10.35;8.25;;;1.20;99.90;;;;;;5051860;28;20479;-65
2023/01/22 08:56:04;;;;;;;8.90;6.80;;;1.20;99.90;;;;;;5052345;28;20435;-64
2023/01/22 08:58:31;;;;;;;9.40;7.40;;;1.20;99.90;;;;;;5055343;28;20520;-65
2023/01/22 09:00:58;;;;;;;9.02;7.00;;;1.20;99.90;;;;;;5055544;28;20511;-63
2023/01/22 09:03:26;;;;;;;9.13;6.90;;;1.20;99.90;;;;;;5054994;28;20436;-64
2023/01/22 09:05:53;;;;;;;9.70;7.30;;;1.20;99.90;;;;;;5055480;28;20453;-64
2023/01/22 09:08:20;;;;;;;10.20;7.10;;;1.30;99.90;;;;;;5054669;28;20445;-65
2023/01/22 09:10:47;;;;;;;9.88;6.85;;;1.30;99.90;;;;;;5055761;28;20509;-65
2023/01/22 09:13:14;;;;;;;10.90;7.30;;;1.30;99.90;;;;;;5055704;28;20437;-62
2023/01/22 09:15:41;;;;;;;10.50;7.22;;;1.40;99.90;;;;;;5054916;28;20508;-63
2023/01/22 09:18:08;;;;;;;8.07;6.75;;;1.40;99.90;;;;;;5056513;28;20506;-63
2023/01/22 09:20:36;;;;;;;9.65;7.20;;;1.40;99.90;;;;;;5053579;28;20487;-62
2023/01/22 09:23:03;;;;;;;9.73;7.20;;;1.40;99.90;;;;;;5055366;28;20426;-62
2023/01/22 09:25:30;;;;;;;8.75;7.20;;;1.40;99.90;;;;;;5054296;28;20483;-64
2023/01/22 09:27:58;;;;;;;11.63;6.93;;;1.40;99.90;;;;;;5054155;28;20789;-64
2023/01/22 09:30:25;;;;;;;10.38;7.28;;;1.40;99.90;;;;;;5050022;28;20612;-64
2023/01/22 09:32:53;;;;;;;8.45;6.50;;;1.50;99.90;;;;;;5051131;28;20863;-62
2023/01/22 09:35:19;;;;;;;9.05;6.80;;;1.60;99.90;;;;;;5054936;28;20420;-61
2023/01/22 09:37:47;;;;;;;9.27;7.00;;;1.60;99.90;;;;;;5054745;28;20413;-62
2023/01/22 09:40:24;;;;;;;9.13;6.85;;;1.60;99.90;;;;;;5054250;28;20525;-62
2023/01/22 09:42:53;;;;;;;9.50;6.70;;;1.70;99.90;;;;;;5055276;28;20495;-62
2023/01/22 09:45:25;;;;;;;8.68;6.30;;;1.70;99.90;;;;;;5055333;28;20495;-62
2023/01/22 09:47:57;;;;;;;9.40;6.25;;;1.70;99.90;;;;;;5055428;28;20424;-62
2023/01/22 09:50:26;;;;;;;9.45;6.93;;;1.70;99.90;;;;;;5055446;28;20424;-63
2023/01/22 09:52:57;;;;;;;9.00;7.27;;;1.70;99.90;;;;;;5054479;28;20527;-62
2023/01/22 09:55:29;;;;;;;8.00;6.68;;;1.70;99.90;;;;;;5055994;28;20421;-60
2023/01/22 09:57:57;;;;;;;7.75;6.80;;;1.70;99.90;;;;;;5055710;28;20500;-62
2023/01/22 10:00:39;;;;;;;8.00;6.50;;;1.80;99.90;;;;;;5055047;28;20414;-62
2023/01/22 10:03:11;;;;;;;11.57;7.00;;;1.80;99.90;;;;;;5054584;28;20754;-62
2023/01/22 10:05:41;;;;;;;11.20;7.30;;;1.90;99.90;;;;;;5054899;28;20860;-64
2023/01/22 10:08:14;;;;;;;11.93;7.40;;;1.90;99.90;;;;;;5055769;28;20500;-62
2023/01/22 10:10:41;;;;;;;19.23;9.75;;;1.90;99.90;;;;;;5054528;28;20475;-62
2023/01/22 10:13:19;;;;;;;13.18;8.82;;;1.80;99.90;;;;;;5054961;28;20463;-63
2023/01/22 10:15:46;;;;;;;10.95;7.70;;;1.80;99.90;;;;;;5054653;28;20420;-63
2023/01/22 10:18:25;;;;;;;9.30;7.00;;;1.80;99.90;;;;;;5054245;28;20421;-63
2023/01/22 10:20:53;;;;;;;9.77;7.20;;;1.80;99.90;;;;;;5054389;28;20445;-62
2023/01/22 10:23:24;;;;;;;9.77;7.30;;;1.80;99.90;;;;;;5053599;28;20427;-62
2023/01/22 10:25:54;;;;;;;7.45;6.57;;;1.90;99.90;;;;;;5069092;22;20928;-61
2023/01/22 10:28:25;;;;;;;8.90;7.00;;;1.90;99.90;;;;;;5054618;28;20780;-62
2023/01/22 10:30:56;;;;;;;9.23;7.32;;;1.90;99.90;;;;;;5054694;28;20437;-62
2023/01/22 10:33:24;;;;;;;10.15;7.80;;;2.00;99.90;;;;;;5054548;28;20785;-64
2023/01/22 10:35:55;;;;;;;9.32;7.18;;;2.00;99.90;;;;;;5054246;28;20877;-64
2023/01/22 10:38:26;;;;;;;10.45;7.65;;;2.10;99.90;;;;;;5055210;28;20474;-64
2023/01/22 10:40:55;;;;;;;7.80;6.90;;;2.10;99.90;;;;;;5054390;28;20923;-63
2023/01/22 10:43:24;;;;;;;9.02;6.93;;;2.10;99.90;;;;;;5054314;28;20421;-64
2023/01/22 10:45:51;;;;;;;10.00;7.70;;;2.10;99.90;;;;;;5055520;28;20950;-64
2023/01/22 10:48:19;;;;;;;12.45;7.80;;;2.10;99.90;;;;;;5054173;28;20920;-65
2023/01/22 10:50:46;;;;;;;10.13;7.30;;;2.10;99.90;;;;;;5054057;28;20419;-64
2023/01/22 10:53:22;;;;;;;9.48;7.18;;;2.10;99.90;;;;;;5054750;28;20455;-64
2023/01/22 10:55:57;;;;;;;9.02;6.80;;;2.20;99.90;;;;;;5053816;28;20424;-62
2023/01/22 10:58:27;;;;;;;8.43;6.90;;;2.20;99.90;;;;;;5055694;28;20417;-64
2023/01/22 11:00:59;;;;;;;7.70;6.72;;;2.10;99.90;;;;;;5056134;28;20420;-64
2023/01/22 11:03:31;;;;;;;9.63;7.00;;;2.10;99.90;;;;;;5055405;28;20424;-63
2023/01/22 11:06:02;;;;;;;10.23;7.53;;;2.10;99.90;;;;;;5051760;28;20789;-63
2023/01/22 11:08:38;;;;;;;8.27;6.57;;;2.00;99.90;;;;;;5054184;28;20499;-63
2023/01/22 11:11:10;;;;;;;8.45;6.45;;;2.10;99.90;;;;;;5036742;28;20440;-64
2023/01/22 11:13:45;;;;;;;11.55;6.60;;;2.10;99.90;;;;;;5052693;28;20804;-64
2023/01/22 11:16:16;;;;;;;8.20;6.43;;;2.10;99.90;;;;;;5055960;28;20599;-64
2023/01/22 11:18:48;;;;;;;9.88;6.93;;;2.20;99.90;;;;;;5061058;28;20437;-64
2023/01/22 11:21:16;;;;;;;7.70;5.90;;;2.20;99.90;;;;;;5037988;28;20984;-63
2023/01/22 11:23:52;;;;;;;8.68;6.70;;;2.20;99.90;;;;;;5053881;28;20405;-64
2023/01/22 11:26:32;;;;;;;8.48;6.50;;;2.20;99.90;;;;;;5054490;28;20524;-64
2023/01/22 11:29:04;;;;;;;8.68;6.85;;;2.30;99.90;;;;;;5055735;28;20496;-65
2023/01/22 11:31:41;;;;;;;6.90;6.20;;;2.20;99.90;;;;;;5058431;28;20439;-64
2023/01/22 11:34:26;;;;;;;8.75;6.50;;;2.20;99.90;;;;;;5057215;28;20416;-62
2023/01/22 11:37:00;;;;;;;10.70;6.55;;;2.10;99.90;;;;;;5057385;28;20419;-65
2023/01/22 11:39:44;;;;;;;7.45;6.50;;;2.10;99.90;;;;;;5058042;28;20425;-64
2023/01/22 11:42:29;;;;;;;9.63;6.32;;;2.10;99.90;;;;;;5060613;28;20416;-64
2023/01/22 11:45:05;;;;;;;9.65;6.80;;;2.10;99.90;;;;;;5060611;28;20435;-64
2023/01/22 11:48:01;;;;;;;8.95;6.78;;;2.10;99.90;;;;;;5062991;28;20429;-64
2023/01/22 11:50:34;;;;;;;9.05;6.78;;;2.10;99.90;;;;;;5062586;28;20888;-63
2023/01/22 11:53:25;;;;;;;7.70;6.30;;;2.20;99.90;;;;;;5061794;28;20421;-64
2023/01/22 11:56:17;;;;;;;6.20;5.60;;;2.20;99.90;;;;;;5062408;28;20416;-64
2023/01/22 11:58:53;;;;;;;7.15;5.53;;;2.30;99.90;;;;;;5063036;28;20421;-63
2023/01/22 12:01:30;;;;;;;6.30;5.53;;;2.30;99.90;;;;;;5062504;28;20541;-63
2023/01/22 12:04:27;;;;;;;7.75;6.40;;;2.30;99.90;;;;;;5061821;28;20417;-64
2023/01/22 12:07:10;;;;;;;6.80;6.10;;;2.30;99.90;;;;;;5061682;28;20414;-63
2023/01/22 12:09:46;;;;;;;7.50;6.53;;;2.20;99.90;;;;;;5064173;28;20409;-64
2023/01/22 12:12:26;;;;;;;9.60;6.20;;;2.30;99.90;;;;;;5062683;28;20495;-64
2023/01/22 12:15:06;;;;;;;12.73;7.68;;;2.30;99.90;;;;;;5063862;28;20413;-64
2023/01/22 12:17:44;;;;;;;6.10;5.50;;;2.30;99.90;;;;;;5062659;28;20417;-63
2023/01/22 12:20:31;;;;;;;7.83;6.00;;;2.30;99.90;;;;;;5063216;28;20409;-64
2023/01/22 12:23:05;;;;;;;7.53;6.18;;;2.30;99.90;;;;;;5062485;28;20417;-63
2023/01/22 12:25:38;;;;;;;5.75;5.18;;;2.30;99.90;;;;;;5061324;28;20417;-65
2023/01/22 12:28:13;;;;;;;7.53;5.40;;;2.30;99.90;;;;;;5060927;28;20409;-64
2023/01/22 12:30:49;;;;;;;7.07;5.70;;;2.30;99.90;;;;;;5060588;28;20440;-64
2023/01/22 12:33:20;;;;;;;7.75;5.93;;;2.30;99.90;;;;;;5061922;28;20765;-64
2023/01/22 12:35:50;;;;;;;9.15;5.70;;;2.20;99.90;;;;;;5059824;28;20919;-63
2023/01/22 12:38:29;;;;;;;7.30;6.30;;;2.30;99.90;;;;;;5060032;28;20504;-64
2023/01/22 12:41:22;;;;;;;6.00;5.40;;;2.30;99.90;;;;;;5060608;28;20419;-65
2023/01/22 12:43:52;;;;;;;6.30;5.32;;;2.40;99.90;;;;;;5049126;28;20433;-63
2023/01/22 12:46:29;;;;;;;6.20;5.60;;;2.40;99.90;;;;;;5061506;28;20414;-64
2023/01/22 12:49:04;;;;;;;6.10;5.50;;;2.30;99.90;;;;;;5060407;28;20485;-64
2023/01/22 12:51:39;;;;;;;7.38;6.68;;;2.30;99.90;;;;;;5061226;28;20413;-65
2023/01/22 12:54:17;;;;;;;8.18;6.20;;;2.30;99.90;;;;;;5060902;28;20413;-64
2023/01/22 12:56:44;;;;;;;7.00;5.97;;;2.30;99.90;;;;;;5063183;28;20424;-63
2023/01/22 12:59:30;;;;;;;7.83;6.20;;;2.30;99.90;;;;;;5060300;28;20514;-65
2023/01/22 13:02:01;;;;;;;7.55;6.55;;;2.20;99.90;;;;;;5062228;28;20411;-64
2023/01/22 13:04:29;;;;;;;8.20;7.05;;;2.20;99.90;;;;;;5063588;28;20420;-64
2023/01/22 13:07:05;;;;;;;8.00;6.20;;;2.20;99.90;;;;;;5061566;28;20413;-64
2023/01/22 13:09:36;;;;;;;6.90;6.20;;;2.20;99.90;;;;;;5060461;28;20427;-64
2023/01/22 13:12:10;;;;;;;6.43;5.80;;;2.20;99.90;;;;;;5061405;28;20421;-64